Concord, NH

10:48 PM EST on December 25, 2014 (GMT -0500)
HADS SOUCOOK RIVER @ PEMBROKE RD NR CONCORD USGS | Change Station
CLOSE
Current Station
Personal Weather Station
Location: Concord, NH
Elevation: 304 ft
Nearby Weather Stations

Elev 304 ft 43.21 °N, 71.48 °W | Updated 1 hour ago

Clear
Clear
40 °F
Feels Like 40 °F
N
Wind Variable Wind from North
Gusts 0.0 mph

Today
High -- | Low -- °F
--% Chance of Precip.
Yesterday
High -- | Low -- °F
Precip. -- in
7:16 AM 4:15 PM
Waxing Crescent, 22% visible
Pressure 29.89 in
Visibility 10.0 miles
Clouds Clear
Windchill 40 °F
Dew Point Not available.
Humidity Not available.
Rainfall 0.24 in
Snow Depth Not available.
UV 0 out of 12
Pollen .10 out of 12
Air Quality Not available.
Flu Activity Not available.
METAR KCON 260251Z AUTO 27010G17KT 10SM CLR 06/M03 A2988 RMK AO2 SLP122 T00561033 51038

More Conditions Fewer Conditions

Pressure 29.89 in
Visibility 10.0 miles
Clouds Clear
Windchill 40 °F
Dew Point Not available.
Humidity Not available.
Rainfall 0.24 in
Snow Depth Not available.
UV 0 out of 12
Pollen .10 out of 12
Air Quality Not available.
Flu Activity Not available.
METAR KCON 260251Z AUTO 27010G17KT 10SM CLR 06/M03 A2988 RMK AO2 SLP122 T00561033 51038

More Conditions Fewer Conditions

10-Day Weather Forecast

Almanac

Astronomy

Dec. 25, 2014 Rise Set
Actual Time
Civil Twilight
Nautical Twilight
Astronomical Twilight
Moon
Length of Visible Light
Length of Day
Tomorrow will be .
, % of the Moon is Illuminated

Today's Extremes

State Highs State Lows

Community

WunderPhotos

Upload Photos

1,780,534 photos uploaded!

WunderBlogs® & News

Nearby

Air Quality

  Air Quality AQ Index Pollutant
Not available.

Snow Depth

Station Depth Elevation

Earthquake Activity

City Distance Mag. Time & Date
Minimum magnitude displayed is 2.5.

Coastal Water Temperatures

Place Temperature

Nearby Weather Stations